createdAt,value
2022-09-15T00:01:10.528Z,14.04
2022-09-15T00:03:37.658Z,13.97
2022-09-15T00:06:05.556Z,13.96
2022-09-15T00:08:32.820Z,13.91
2022-09-15T00:11:23.043Z,13.93
2022-09-15T00:13:51.573Z,13.93
2022-09-15T00:16:21.242Z,13.89
2022-09-15T00:18:48.674Z,13.82
2022-09-15T00:21:20.408Z,13.77
2022-09-15T00:23:48.995Z,13.74
2022-09-15T00:26:20.190Z,13.72
2022-09-15T00:28:47.852Z,13.74
2022-09-15T00:31:19.391Z,13.73
2022-09-15T00:33:53.024Z,13.71
2022-09-15T00:36:21.680Z,13.72
2022-09-15T00:38:48.835Z,13.69
2022-09-15T00:41:19.484Z,13.75
2022-09-15T00:44:21.951Z,13.67
2022-09-15T00:47:09.655Z,13.78
2022-09-15T00:49:41.926Z,13.78
2022-09-15T00:52:43.714Z,13.81
2022-09-15T00:55:44.426Z,13.81
2022-09-15T00:58:20.180Z,13.77
2022-09-15T01:00:57.556Z,13.76
2022-09-15T01:03:26.512Z,13.74
2022-09-15T01:05:59.358Z,13.71
2022-09-15T01:08:42.744Z,13.70
2022-09-15T01:11:09.895Z,13.68
2022-09-15T01:13:36.848Z,13.68
2022-09-15T01:16:36.891Z,13.67
2022-09-15T01:19:59.365Z,13.63
2022-09-15T01:23:01.286Z,13.63
2022-09-15T01:26:04.475Z,13.60
2022-09-15T01:29:13.597Z,13.55
2022-09-15T01:32:16.388Z,13.51
2022-09-15T01:35:01.448Z,13.47
2022-09-15T01:37:37.104Z,13.46
2022-09-15T01:40:06.672Z,13.44
2022-09-15T01:42:34.915Z,13.43
2022-09-15T01:45:22.179Z,13.39
2022-09-15T01:47:53.347Z,13.39
2022-09-15T01:50:33.342Z,13.38
2022-09-15T01:53:05.574Z,13.34
2022-09-15T01:55:43.419Z,13.36
2022-09-15T01:58:10.515Z,13.32
2022-09-15T02:00:44.228Z,13.33
2022-09-15T02:03:25.252Z,13.32
2022-09-15T02:06:02.749Z,13.34
2022-09-15T02:08:39.948Z,13.36
2022-09-15T02:11:16.263Z,13.35
2022-09-15T02:14:02.928Z,13.36
2022-09-15T02:16:35.351Z,13.35
2022-09-15T02:19:32.908Z,13.33
2022-09-15T02:22:27.078Z,13.37
2022-09-15T02:25:06.027Z,13.36
2022-09-15T02:27:41.776Z,13.35
2022-09-15T02:30:13.456Z,13.34
2022-09-15T02:32:50.987Z,13.34
2022-09-15T02:35:18.403Z,13.31
2022-09-15T02:37:46.694Z,13.32
2022-09-15T02:40:14.013Z,13.31
2022-09-15T02:42:42.438Z,13.30
2022-09-15T02:45:10.099Z,13.31
2022-09-15T02:47:37.097Z,13.30
2022-09-15T02:50:04.527Z,13.29
2022-09-15T02:52:31.422Z,13.26
2022-09-15T02:54:59.290Z,13.28
2022-09-15T02:57:26.162Z,13.28
2022-09-15T03:00:11.722Z,13.31
2022-09-15T03:02:39.895Z,13.35
2022-09-15T03:05:08.839Z,13.34
2022-09-15T03:07:38.091Z,13.32
2022-09-15T03:10:10.224Z,13.34
2022-09-15T03:12:42.399Z,13.35
2022-09-15T03:15:11.615Z,13.36
2022-09-15T03:17:41.635Z,13.31
2022-09-15T03:20:12.315Z,13.28
2022-09-15T03:22:39.432Z,13.25
2022-09-15T03:25:07.735Z,13.23
2022-09-15T03:27:35.616Z,13.22
2022-09-15T03:30:04.277Z,13.23
2022-09-15T03:32:31.265Z,13.21
2022-09-15T03:34:58.767Z,13.22
2022-09-15T03:37:26.151Z,13.24
2022-09-15T03:39:53.358Z,13.26
2022-09-15T03:42:21.458Z,13.28
2022-09-15T03:44:48.337Z,13.32
2022-09-15T03:47:15.326Z,13.34
2022-09-15T03:49:42.337Z,13.32
2022-09-15T03:52:10.088Z,13.35
2022-09-15T03:54:37.047Z,13.37
2022-09-15T03:57:04.422Z,13.40
2022-09-15T03:59:31.338Z,13.44
2022-09-15T04:01:58.402Z,13.42
2022-09-15T04:04:25.389Z,13.45
2022-09-15T04:06:53.193Z,13.46
2022-09-15T04:09:21.408Z,13.46
2022-09-15T04:11:48.513Z,13.47
2022-09-15T04:14:15.657Z,13.51
2022-09-15T04:16:42.775Z,13.53
2022-09-15T04:19:09.838Z,13.54
2022-09-15T04:21:36.758Z,13.56
2022-09-15T04:24:05.821Z,13.55
2022-09-15T04:26:36.395Z,13.59
2022-09-15T04:29:10.529Z,13.59
2022-09-15T04:31:37.701Z,13.61
2022-09-15T04:34:04.929Z,13.64
2022-09-15T04:36:31.826Z,13.65
2022-09-15T04:38:59.207Z,13.67
2022-09-15T04:41:28.501Z,13.69
2022-09-15T04:43:55.545Z,13.70
2022-09-15T04:46:22.833Z,13.68
2022-09-15T04:48:49.818Z,13.65
2022-09-15T04:51:21.198Z,13.69
2022-09-15T04:53:49.480Z,13.68
2022-09-15T04:56:21.025Z,13.71
2022-09-15T04:58:59.533Z,13.73
2022-09-15T05:01:33.882Z,13.68
2022-09-15T05:04:04.014Z,13.71
2022-09-15T05:06:32.960Z,13.69
2022-09-15T05:08:59.942Z,13.72
2022-09-15T05:11:28.322Z,13.75
2022-09-15T05:13:55.573Z,13.74
2022-09-15T05:16:25.964Z,13.75
2022-09-15T05:18:55.682Z,13.76
2022-09-15T05:21:24.010Z,13.73
2022-09-15T05:23:53.998Z,13.73
2022-09-15T05:26:25.390Z,13.78
2022-09-15T05:28:52.987Z,13.81
2022-09-15T05:31:22.421Z,13.82
2022-09-15T05:33:51.243Z,13.83
2022-09-15T05:36:20.300Z,13.82
2022-09-15T05:38:47.495Z,13.84
2022-09-15T05:41:19.736Z,13.88
2022-09-15T05:43:48.260Z,13.88
2022-09-15T05:46:16.924Z,13.89
2022-09-15T05:48:47.969Z,13.92
2022-09-15T05:51:15.191Z,13.97
2022-09-15T05:53:42.198Z,14.02
2022-09-15T05:56:13.871Z,14.06
2022-09-15T05:58:43.032Z,14.09
2022-09-15T06:01:20.451Z,14.13
2022-09-15T06:03:48.297Z,14.14
2022-09-15T06:06:15.867Z,14.16
2022-09-15T06:08:48.355Z,14.18
2022-09-15T06:11:21.047Z,14.17
2022-09-15T06:13:48.510Z,14.21
2022-09-15T06:16:19.497Z,14.22
2022-09-15T06:18:48.752Z,14.22
2022-09-15T06:21:27.492Z,14.25
2022-09-15T06:23:59.891Z,14.27
2022-09-15T06:26:28.135Z,14.30
2022-09-15T06:29:01.352Z,14.28
2022-09-15T06:31:33.936Z,14.30
2022-09-15T06:34:02.381Z,14.34
2022-09-15T06:36:31.129Z,14.35
2022-09-15T06:38:58.838Z,14.35
2022-09-15T06:41:26.323Z,14.39
2022-09-15T06:43:53.686Z,14.42
2022-09-15T06:46:26.284Z,14.45
2022-09-15T06:48:53.756Z,14.47
2022-09-15T06:51:25.885Z,14.51
2022-09-15T06:53:53.871Z,14.52
2022-09-15T06:56:23.736Z,14.54
2022-09-15T06:58:51.440Z,14.55
2022-09-15T07:01:30.573Z,14.53
2022-09-15T07:04:01.796Z,14.53
2022-09-15T07:06:31.049Z,14.55
2022-09-15T07:08:58.587Z,14.56
2022-09-15T07:11:26.125Z,14.57
2022-09-15T07:13:53.174Z,14.55
2022-09-15T07:16:21.627Z,14.57
2022-09-15T07:18:49.474Z,14.62
2022-09-15T07:21:19.973Z,14.68
2022-09-15T07:23:48.035Z,14.73
2022-09-15T07:26:25.596Z,14.80
2022-09-15T07:29:01.103Z,14.86
2022-09-15T07:31:31.478Z,14.91
2022-09-15T07:34:02.201Z,14.97
2022-09-15T07:36:30.552Z,15.01
2022-09-15T07:38:57.851Z,15.04
2022-09-15T07:41:29.929Z,15.13
2022-09-15T07:43:59.049Z,15.17
2022-09-15T07:46:27.825Z,15.22
2022-09-15T07:48:58.452Z,15.29
2022-09-15T07:51:26.608Z,15.40
2022-09-15T07:53:54.518Z,15.51
2022-09-15T07:56:23.287Z,15.59
2022-09-15T07:58:50.958Z,15.63
2022-09-15T08:01:20.143Z,15.65
2022-09-15T08:03:50.705Z,15.64
2022-09-15T08:06:27.690Z,15.69
2022-09-15T08:08:59.959Z,15.74
2022-09-15T08:11:29.386Z,15.83
2022-09-15T08:13:56.541Z,15.96
2022-09-15T08:16:24.595Z,16.13
2022-09-15T08:18:55.278Z,16.33
2022-09-15T08:21:23.462Z,16.53
2022-09-15T08:23:56.389Z,16.60
2022-09-15T08:26:25.249Z,16.67
2022-09-15T08:28:52.483Z,16.67
2022-09-15T08:31:19.799Z,16.69
2022-09-15T08:33:51.929Z,16.78
2022-09-15T08:36:19.408Z,16.87
2022-09-15T08:38:47.123Z,16.86
2022-09-15T08:41:40.582Z,16.92
2022-09-15T08:44:45.771Z,17.04
2022-09-15T08:47:32.484Z,17.06
2022-09-15T08:50:35.933Z,17.17
2022-09-15T08:53:16.439Z,17.18
2022-09-15T08:55:55.454Z,17.26
2022-09-15T08:58:30.502Z,17.43
2022-09-15T09:01:34.125Z,17.77
2022-09-15T09:04:29.941Z,17.98
2022-09-15T09:07:32.854Z,18.07
2022-09-15T09:10:51.222Z,18.31
2022-09-15T09:13:46.654Z,18.37
2022-09-15T09:16:36.227Z,18.33
2022-09-15T09:20:01.166Z,18.35
2022-09-15T09:22:33.835Z,18.43
2022-09-15T09:25:21.296Z,18.68
2022-09-15T09:27:51.330Z,19.09
2022-09-15T09:30:22.811Z,19.52
2022-09-15T09:33:26.613Z,19.50
2022-09-15T09:35:53.903Z,19.42
2022-09-15T09:38:29.966Z,19.39
2022-09-15T09:41:01.929Z,19.46
2022-09-15T09:43:30.847Z,19.49
2022-09-15T09:45:57.859Z,19.53
2022-09-15T09:48:27.122Z,19.41
2022-09-15T09:50:55.286Z,19.33
2022-09-15T09:53:33.351Z,19.23
2022-09-15T09:56:27.029Z,19.07
2022-09-15T09:58:54.826Z,18.97
2022-09-15T10:01:24.976Z,18.88
2022-09-15T10:04:19.269Z,18.62
2022-09-15T10:06:46.990Z,18.57
2022-09-15T10:09:18.301Z,18.75
2022-09-15T10:11:52.756Z,18.99
2022-09-15T10:14:33.951Z,19.15
2022-09-15T10:17:18.435Z,19.09
2022-09-15T10:19:57.172Z,19.12
2022-09-15T10:22:36.060Z,19.06
2022-09-15T10:25:39.550Z,18.85
2022-09-15T10:28:17.787Z,18.73
2022-09-15T10:31:13.326Z,18.47
2022-09-15T10:33:45.270Z,18.34
2022-09-15T10:36:23.997Z,18.31
2022-09-15T10:39:06.558Z,18.27
2022-09-15T10:41:43.873Z,18.27
2022-09-15T10:44:25.564Z,18.26
2022-09-15T10:47:37.875Z,18.26
2022-09-15T10:50:41.175Z,18.30
2022-09-15T10:53:39.599Z,18.39
2022-09-15T10:56:30.779Z,18.39
2022-09-15T10:59:43.090Z,18.38
2022-09-15T11:02:53.035Z,18.34
2022-09-15T11:05:23.830Z,18.33
2022-09-15T11:08:31.930Z,18.42
2022-09-15T11:11:13.940Z,18.49
2022-09-15T11:14:07.352Z,18.51
2022-09-15T11:17:02.258Z,18.58
2022-09-15T11:20:12.351Z,18.80
2022-09-15T11:23:02.547Z,19.15
2022-09-15T11:25:33.401Z,19.59
2022-09-15T11:28:27.666Z,19.89
2022-09-15T11:31:09.614Z,20.08
2022-09-15T11:34:11.465Z,20.11
2022-09-15T11:36:52.172Z,20.03
2022-09-15T11:39:32.971Z,19.88
2022-09-15T11:42:25.235Z,19.65
2022-09-15T11:44:53.059Z,19.48
2022-09-15T11:47:40.297Z,19.35
2022-09-15T11:50:45.259Z,19.21
2022-09-15T11:53:33.853Z,18.89
2022-09-15T11:56:21.772Z,18.71
2022-09-15T11:59:27.115Z,18.60
2022-09-15T12:02:22.030Z,18.40
2022-09-15T12:05:19.831Z,18.17
2022-09-15T12:08:16.718Z,17.98
2022-09-15T12:10:50.042Z,17.80
2022-09-15T12:13:24.103Z,17.81
2022-09-15T12:15:52.265Z,17.85
2022-09-15T12:18:46.868Z,17.99
2022-09-15T12:21:57.389Z,18.15
2022-09-15T12:24:45.846Z,18.30
2022-09-15T12:27:17.948Z,18.31
2022-09-15T12:30:30.139Z,18.32
2022-09-15T12:32:57.107Z,18.28
2022-09-15T12:35:23.846Z,18.29
2022-09-15T12:37:57.220Z,18.26
2022-09-15T12:40:44.477Z,18.26
2022-09-15T12:43:11.502Z,18.32
2022-09-15T12:45:40.976Z,18.29
2022-09-15T12:48:16.500Z,18.32
2022-09-15T12:50:53.230Z,18.31
2022-09-15T12:53:26.028Z,18.38
2022-09-15T12:55:58.162Z,18.44
2022-09-15T12:58:39.682Z,18.51
2022-09-15T13:01:18.931Z,18.57
2022-09-15T13:03:46.610Z,18.68
2022-09-15T13:06:35.957Z,18.79
2022-09-15T13:09:03.783Z,18.88
2022-09-15T13:11:34.658Z,18.93
2022-09-15T13:14:06.744Z,18.97
2022-09-15T13:16:35.007Z,19.02
2022-09-15T13:19:16.957Z,19.14
2022-09-15T13:22:11.050Z,19.25
2022-09-15T13:25:02.004Z,19.32
2022-09-15T13:27:50.307Z,19.53
2022-09-15T13:31:01.023Z,19.57
2022-09-15T13:38:05.367Z,19.52
2022-09-15T13:41:32.800Z,19.52
2022-09-15T13:44:31.004Z,19.48
2022-09-15T13:47:17.892Z,19.46
2022-09-15T13:50:13.285Z,19.26
2022-09-15T13:53:24.102Z,19.15
2022-09-15T13:55:53.688Z,18.89
2022-09-15T14:01:12.468Z,18.83
2022-09-15T14:03:47.659Z,18.82
2022-09-15T14:06:27.341Z,18.76
2022-09-15T14:08:58.955Z,18.60
2022-09-15T14:11:32.582Z,18.66
2022-09-15T14:14:03.584Z,18.65
2022-09-15T14:16:36.868Z,18.69
2022-09-15T14:19:38.297Z,18.75
2022-09-15T14:22:48.941Z,18.80
2022-09-15T14:25:17.078Z,18.67
2022-09-15T14:27:51.180Z,18.58
2022-09-15T14:30:29.851Z,18.67
2022-09-15T14:33:04.076Z,18.71
2022-09-15T14:35:37.578Z,18.66
2022-09-15T14:38:04.832Z,18.65
2022-09-15T14:40:38.077Z,18.70
2022-09-15T14:43:26.799Z,18.69
2022-09-15T14:46:02.314Z,18.68
2022-09-15T14:48:31.947Z,18.71
2022-09-15T14:51:09.035Z,18.81
2022-09-15T14:53:39.495Z,18.96
2022-09-15T14:56:12.794Z,18.98
2022-09-15T14:58:52.300Z,19.00
2022-09-15T15:01:43.524Z,19.02
2022-09-15T15:04:36.975Z,19.06
2022-09-15T15:07:31.849Z,19.22
2022-09-15T15:10:15.998Z,19.12
2022-09-15T15:12:47.712Z,18.99
2022-09-15T15:15:16.474Z,18.76
2022-09-15T15:17:49.243Z,18.74
2022-09-15T15:20:23.623Z,18.76
2022-09-15T15:23:25.091Z,18.80
2022-09-15T15:25:53.488Z,18.82
2022-09-15T15:28:39.316Z,18.82
2022-09-15T15:31:20.590Z,18.78
2022-09-15T15:34:05.237Z,18.70
2022-09-15T15:36:34.999Z,18.66
2022-09-15T15:39:07.842Z,18.64
2022-09-15T15:41:41.105Z,18.52
2022-09-15T15:44:27.169Z,18.32
2022-09-15T15:47:01.418Z,18.16
2022-09-15T15:49:32.508Z,17.95
2022-09-15T15:52:01.744Z,17.79
2022-09-15T15:54:29.549Z,17.80
2022-09-15T15:57:22.631Z,17.89
2022-09-15T15:59:52.769Z,17.82
2022-09-15T16:02:20.650Z,17.78
2022-09-15T16:04:47.858Z,17.79
2022-09-15T16:07:19.923Z,17.78
2022-09-15T16:09:48.719Z,17.61
2022-09-15T16:12:16.522Z,17.49
2022-09-15T16:14:43.636Z,17.40
2022-09-15T16:17:10.865Z,17.31
2022-09-15T16:19:37.788Z,17.11
2022-09-15T16:22:05.119Z,17.02
2022-09-15T16:24:32.424Z,17.01
2022-09-15T16:26:59.890Z,17.00
2022-09-15T16:29:31.424Z,16.90
2022-09-15T16:31:58.999Z,16.95
2022-09-15T16:34:26.128Z,16.98
2022-09-15T16:36:53.024Z,16.99
2022-09-15T16:39:19.988Z,16.88
2022-09-15T16:41:47.043Z,16.59
2022-09-15T16:44:19.655Z,16.44
2022-09-15T16:46:46.733Z,16.33
2022-09-15T16:49:13.872Z,16.19
2022-09-15T16:51:40.840Z,15.93
2022-09-15T16:54:17.793Z,15.79
2022-09-15T16:56:45.735Z,15.62
2022-09-15T16:59:13.220Z,15.49
2022-09-15T17:01:40.393Z,15.35
2022-09-15T17:04:15.850Z,15.28
2022-09-15T17:06:43.246Z,15.29
2022-09-15T17:09:10.149Z,15.36
2022-09-15T17:11:37.128Z,15.42
2022-09-15T17:14:04.063Z,15.47
2022-09-15T17:16:31.197Z,15.46
2022-09-15T17:18:58.050Z,15.43
2022-09-15T17:21:25.037Z,15.37
2022-09-15T17:23:52.079Z,15.34
2022-09-15T17:26:30.461Z,15.33
2022-09-15T17:28:58.425Z,15.33
2022-09-15T17:31:25.830Z,15.31
2022-09-15T17:33:53.120Z,15.19
2022-09-15T17:36:20.270Z,15.12
2022-09-15T17:38:48.951Z,15.03
2022-09-15T17:41:22.337Z,15.00
2022-09-15T17:43:49.559Z,14.93
2022-09-15T17:46:16.506Z,14.89
2022-09-15T17:48:43.519Z,14.82
2022-09-15T17:51:17.417Z,14.83
2022-09-15T17:53:46.648Z,14.80
2022-09-15T17:56:13.643Z,14.79
2022-09-15T17:58:41.441Z,14.75
2022-09-15T18:01:11.585Z,14.74
2022-09-15T18:03:38.650Z,14.72
2022-09-15T18:06:08.282Z,14.75
2022-09-15T18:08:36.231Z,14.69
2022-09-15T18:11:05.239Z,14.67
2022-09-15T18:13:33.503Z,14.60
2022-09-15T18:16:12.594Z,14.59
2022-09-15T18:18:40.954Z,14.61
2022-09-15T18:21:12.194Z,14.68
2022-09-15T18:23:42.319Z,14.74
2022-09-15T18:26:09.266Z,14.83
2022-09-15T18:28:36.221Z,14.83
2022-09-15T18:31:03.283Z,14.80
2022-09-15T18:33:30.575Z,14.76
2022-09-15T18:36:01.373Z,14.70
2022-09-15T18:38:28.361Z,14.61
2022-09-15T18:40:56.690Z,14.53
2022-09-15T18:43:26.430Z,14.49
2022-09-15T18:45:59.483Z,14.39
2022-09-15T18:48:26.621Z,14.36
2022-09-15T18:50:53.567Z,14.34
2022-09-15T18:53:20.682Z,14.31
2022-09-15T18:55:47.694Z,14.31
2022-09-15T18:58:14.654Z,14.32
2022-09-15T19:00:41.869Z,14.28
2022-09-15T19:03:09.616Z,14.28
2022-09-15T19:05:37.213Z,14.27
2022-09-15T19:08:04.825Z,14.29
2022-09-15T19:10:32.566Z,14.29
2022-09-15T19:12:59.519Z,14.29
2022-09-15T19:15:29.157Z,14.27
2022-09-15T19:17:56.176Z,14.28
2022-09-15T19:20:23.547Z,14.17
2022-09-15T19:22:51.571Z,14.27
2022-09-15T19:25:18.600Z,14.38
2022-09-15T19:27:45.652Z,14.55
2022-09-15T19:30:12.973Z,14.59
2022-09-15T19:32:40.792Z,14.53
2022-09-15T19:35:09.357Z,14.46
2022-09-15T19:37:39.520Z,14.38
2022-09-15T19:40:09.822Z,14.35
2022-09-15T19:42:42.813Z,14.28
2022-09-15T19:45:12.878Z,14.22
2022-09-15T19:47:40.216Z,14.22
2022-09-15T19:50:09.685Z,14.23
2022-09-15T19:52:36.661Z,14.18
2022-09-15T19:55:06.669Z,14.21
2022-09-15T19:57:33.610Z,14.21
2022-09-15T20:00:00.639Z,14.13
2022-09-15T20:02:27.976Z,14.13
2022-09-15T20:04:55.091Z,14.08
2022-09-15T20:07:22.022Z,14.09
2022-09-15T20:09:49.181Z,14.09
2022-09-15T20:12:16.202Z,14.07
2022-09-15T20:14:43.160Z,14.02
2022-09-15T20:17:10.261Z,13.97
2022-09-15T20:19:37.571Z,13.99
2022-09-15T20:22:04.894Z,14.00
2022-09-15T20:24:31.827Z,13.92
2022-09-15T20:26:59.279Z,13.89
2022-09-15T20:29:26.343Z,13.90
2022-09-15T20:31:53.499Z,13.84
2022-09-15T20:34:20.455Z,13.84
2022-09-15T20:36:47.504Z,13.81
2022-09-15T20:39:15.939Z,13.80
2022-09-15T20:41:45.036Z,13.78
2022-09-15T20:44:12.442Z,13.75
2022-09-15T20:46:40.079Z,13.73
2022-09-15T20:49:08.098Z,13.68
2022-09-15T20:51:35.296Z,13.62
2022-09-15T20:54:03.952Z,13.60
2022-09-15T20:56:34.987Z,13.56
2022-09-15T20:59:03.738Z,13.54
2022-09-15T21:01:37.683Z,13.49
2022-09-15T21:04:06.491Z,13.43
2022-09-15T21:06:34.077Z,13.38
2022-09-15T21:09:01.334Z,13.35
2022-09-15T21:11:29.555Z,13.31
2022-09-15T21:13:57.622Z,13.28
2022-09-15T21:16:27.854Z,13.25
2022-09-15T21:18:57.582Z,13.18
2022-09-15T21:21:30.324Z,13.17
2022-09-15T21:24:04.087Z,13.16
2022-09-15T21:27:01.384Z,13.11
2022-09-15T21:29:29.020Z,13.09
2022-09-15T21:31:56.402Z,13.07
2022-09-15T21:34:24.033Z,13.02
2022-09-15T21:36:51.832Z,13.02
2022-09-15T21:39:18.857Z,13.01
2022-09-15T21:41:45.849Z,13.02
2022-09-15T21:44:12.832Z,13.00
2022-09-15T21:46:40.004Z,12.98
2022-09-15T21:49:07.095Z,12.93
2022-09-15T21:51:34.108Z,12.93
2022-09-15T21:54:01.297Z,12.90
2022-09-15T21:56:30.152Z,12.87
2022-09-15T21:58:57.616Z,12.86
2022-09-15T22:01:31.403Z,12.83
2022-09-15T22:04:05.358Z,12.80
2022-09-15T22:06:35.365Z,12.79
2022-09-15T22:09:13.960Z,12.76
2022-09-15T22:11:41.437Z,12.72
2022-09-15T22:14:09.452Z,12.71
2022-09-15T22:16:39.271Z,12.70
2022-09-15T22:19:09.723Z,12.71
2022-09-15T22:21:41.389Z,12.68
2022-09-15T22:24:11.684Z,12.65
2022-09-15T22:26:39.395Z,12.65
2022-09-15T22:29:06.917Z,12.63
2022-09-15T22:31:35.252Z,12.61
2022-09-15T22:34:03.047Z,12.59
2022-09-15T22:36:31.808Z,12.56
2022-09-15T22:39:06.933Z,12.51
2022-09-15T22:41:36.969Z,12.50
2022-09-15T22:44:05.882Z,12.48
2022-09-15T22:46:33.323Z,12.46
2022-09-15T22:49:00.404Z,12.44
2022-09-15T22:51:27.742Z,12.42
2022-09-15T22:53:57.190Z,12.44
2022-09-15T22:56:26.932Z,12.44
2022-09-15T22:58:55.499Z,12.43
2022-09-15T23:01:26.984Z,12.43
2022-09-15T23:03:57.621Z,12.45
2022-09-15T23:06:27.370Z,12.47
2022-09-15T23:09:00.875Z,12.48
2022-09-15T23:11:32.336Z,12.48
2022-09-15T23:14:00.195Z,12.45
2022-09-15T23:16:27.350Z,12.45
2022-09-15T23:18:55.253Z,12.45
2022-09-15T23:21:22.725Z,12.45
2022-09-15T23:23:50.180Z,12.44
2022-09-15T23:26:20.693Z,12.43
2022-09-15T23:28:49.207Z,12.41
2022-09-15T23:31:16.908Z,12.43
2022-09-15T23:33:44.150Z,12.41
2022-09-15T23:36:19.544Z,12.42
2022-09-15T23:38:48.243Z,12.38
2022-09-15T23:41:17.437Z,12.36
2022-09-15T23:43:45.243Z,12.37
2022-09-15T23:46:12.444Z,12.33
2022-09-15T23:48:39.445Z,12.32
2022-09-15T23:51:06.811Z,12.37
2022-09-15T23:53:34.232Z,12.33
2022-09-15T23:56:01.895Z,12.35
2022-09-15T23:58:28.868Z,12.34
